Terminal Aerodrome Forecast
Issued by NWS

Home | Current Version | Previous Version | Text Only | Print | Product List | Glossary On
Versions: 1 2 3 4 5 6 7 8 9 10 11 12 13
000
FTUS45 KABQ 051139
TAFGUP
TAF
KGUP 051139Z 0512/0612 VRB03KT P6SM VCSH FEW030 BKN050
     FM051500 20006KT P6SM BKN060
     FM051800 22012G18KT P6SM VCTS BKN060CB
      TEMPO 0519/0522 -RA OVC050
     FM052300 22012KT P6SM VCSH BKN060
     FM060300 VRB03KT P6SM BKN100=

USA.gov is the U.S. government's official web portal to all federal, state and local government web resources and services.